Airfield :
LOGIN :

Register | Disclaimer

   EN    FR    IT 

 










Legend :    VFR   Marginal VFR   IFR   Intensive IFR   Very Intensive IFR
Visi :
Ceiling :
>= 8 km
>= 3000ft
5 to 8 km
1000 to 3000 ft
1500m to 5 km
500 to 1000 ft
800 to 1500m
200 to 500 ft
< 800m
< 200 ft
Symbols :   Thunderstorms  Fog  Heavy snow  Heavy precipitations  Wind > 20 kt
SIGMETs :     Misc.  Thunderstorms  Icing  Turbulence  Mountain Waves  Volcanic Ashes






- Airport Elevation : 1686 ft
- IATA code : MUW


DAOV - Ghriss

CURRENT METAR :
  • 120600Z 23003KT 9999 FEW026 08/06 Q1013

EXPIRED METARs :
  • 120500Z 23004KT 9999 SCT026 09/07 Q1012
  • 120400Z 23005KT 9999 FEW026 09/07 Q1013

TAF TAF DAOV
Valid from the 12 at 06:00 until the 12 at 15:00 UTC


120500Z 1206/1215 VRB02KT 8000 SCT020
BECMG 1209/1212 32010KT 9999 FEW026 SCT200



MET'MAP, your aeronautical weather chart ! - Copyright ORBIFLY December 2007 - Disclaimer

ORBIFLY MET'MAP TEAM :

Programming & Development : Alexandra Zaïnal
Concept & Development : Baudouin d'Aumeries
Co-Development & Prog : Marc-Olivier Méhu
Technical & hardware support : Manuel Goepfert

Contact : metmap@orbifly.com




SOURCES & CREDITS :

   NOAA